createdAt,value
2022-09-24T08:30:22.416Z,13.90
2022-09-24T08:32:49.052Z,14.00
2022-09-24T08:35:15.892Z,14.10
2022-09-24T08:37:42.441Z,14.10
2022-09-24T08:40:17.709Z,14.20
2022-09-24T08:42:46.219Z,14.30
2022-09-24T08:45:31.384Z,14.40
2022-09-24T08:48:04.197Z,14.50
2022-09-24T08:50:34.974Z,14.50
2022-09-24T08:53:26.572Z,14.60
2022-09-24T08:55:56.016Z,14.70
2022-09-24T08:58:44.376Z,14.70
2022-09-24T09:01:11.393Z,14.70
2022-09-24T09:04:00.225Z,14.80
2022-09-24T09:06:44.204Z,14.90
2022-09-24T09:09:21.802Z,15.10
2022-09-24T09:12:00.773Z,15.20
2022-09-24T09:14:45.768Z,15.30
2022-09-24T09:17:24.180Z,15.30
2022-09-24T09:19:57.068Z,15.50
2022-09-24T09:22:29.212Z,15.50
2022-09-24T09:25:04.195Z,15.60
2022-09-24T09:27:30.952Z,15.60
2022-09-24T09:30:00.960Z,15.70
2022-09-24T09:32:43.811Z,15.70
2022-09-24T09:35:34.915Z,15.70
2022-09-24T09:38:41.348Z,15.80
2022-09-24T09:41:14.556Z,15.80
2022-09-24T09:43:44.322Z,16.00
2022-09-24T09:46:29.066Z,16.00
2022-09-24T09:49:02.998Z,15.90
2022-09-24T09:51:37.275Z,15.90
2022-09-24T09:54:04.976Z,15.90
2022-09-24T09:56:47.414Z,16.00
2022-09-24T09:59:14.080Z,15.90
2022-09-24T10:01:43.316Z,15.90
2022-09-24T10:04:37.481Z,16.00
2022-09-24T10:07:10.488Z,15.90
2022-09-24T10:09:38.721Z,15.90
2022-09-24T10:12:15.984Z,16.00
2022-09-24T10:14:43.269Z,16.10
2022-09-24T10:17:16.899Z,16.20
2022-09-24T10:19:47.850Z,16.20
2022-09-24T10:22:24.630Z,16.20
2022-09-24T10:24:53.761Z,16.20
2022-09-24T10:27:41.090Z,16.10
2022-09-24T10:30:35.190Z,16.00
2022-09-24T10:33:04.349Z,16.00
2022-09-24T10:35:35.738Z,16.10
2022-09-24T10:38:14.631Z,16.10
2022-09-24T10:40:42.568Z,16.10
2022-09-24T10:43:17.086Z,16.10
2022-09-24T10:46:01.849Z,16.10
2022-09-24T10:48:45.713Z,16.10
2022-09-24T10:51:29.098Z,16.00
2022-09-24T10:54:26.057Z,16.00
2022-09-24T10:56:55.701Z,16.00
2022-09-24T10:59:51.275Z,16.00
2022-09-24T11:02:49.289Z,16.10
2022-09-24T11:05:22.448Z,16.30
2022-09-24T11:08:15.609Z,16.40
2022-09-24T11:10:57.767Z,16.30
2022-09-24T11:13:45.887Z,16.40
2022-09-24T11:16:42.151Z,16.50
2022-09-24T11:19:57.413Z,16.60
2022-09-24T11:22:32.147Z,16.50
2022-09-24T11:25:29.295Z,16.60
2022-09-24T11:28:14.777Z,16.60
2022-09-24T11:30:58.421Z,16.70
2022-09-24T11:34:02.320Z,16.80
2022-09-24T11:36:43.975Z,16.90
2022-09-24T11:39:35.213Z,16.90
2022-09-24T11:42:24.178Z,17.00
2022-09-24T11:45:02.699Z,17.10
2022-09-24T11:47:48.269Z,17.00
2022-09-24T11:50:17.781Z,16.90
2022-09-24T11:52:56.289Z,17.10
2022-09-24T11:55:34.771Z,17.10
2022-09-24T11:58:16.621Z,17.10
2022-09-24T12:01:14.083Z,17.20
2022-09-24T12:03:58.312Z,17.20
2022-09-24T12:06:31.214Z,17.10
2022-09-24T12:09:17.936Z,17.00
2022-09-24T12:11:54.327Z,17.10
2022-09-24T12:14:31.823Z,17.00
2022-09-24T12:17:07.172Z,17.10
2022-09-24T12:19:42.013Z,17.10
2022-09-24T12:22:11.870Z,17.10
2022-09-24T12:24:58.526Z,17.10
2022-09-24T12:27:45.094Z,17.10
2022-09-24T12:30:52.475Z,17.10
2022-09-24T12:33:43.356Z,17.20
2022-09-24T12:36:22.107Z,17.20
2022-09-24T12:38:55.244Z,17.30
2022-09-24T12:41:44.363Z,17.50
2022-09-24T12:44:10.952Z,17.70
2022-09-24T12:46:55.550Z,17.90
2022-09-24T12:49:25.312Z,18.30
2022-09-24T12:51:54.474Z,18.60
2022-09-24T12:54:29.302Z,18.70
2022-09-24T12:57:24.443Z,18.50
2022-09-24T13:00:23.410Z,18.40
2022-09-24T13:02:50.698Z,18.20
2022-09-24T13:05:28.303Z,18.10
2022-09-24T13:08:23.175Z,18.10
2022-09-24T13:11:05.582Z,18.10
2022-09-24T13:13:36.691Z,18.20
2022-09-24T13:16:06.110Z,18.10
2022-09-24T13:18:35.886Z,18.20
2022-09-24T13:21:08.179Z,18.50
2022-09-24T13:23:38.736Z,18.80
2022-09-24T13:26:09.178Z,18.90
2022-09-24T13:28:57.584Z,18.70
2022-09-24T13:31:27.401Z,18.70
2022-09-24T13:34:00.612Z,18.50
2022-09-24T13:36:33.197Z,18.20
2022-09-24T13:39:32.801Z,18.30
2022-09-24T13:42:23.400Z,18.40
2022-09-24T13:44:56.650Z,18.40
2022-09-24T13:47:49.065Z,18.40
2022-09-24T13:50:25.195Z,18.50
2022-09-24T13:53:00.353Z,18.50
2022-09-24T13:55:39.984Z,18.40
2022-09-24T13:58:26.013Z,18.40
2022-09-24T14:00:53.431Z,18.40
2022-09-24T14:03:30.193Z,18.50
2022-09-24T14:05:59.675Z,18.60
2022-09-24T14:08:28.274Z,18.80
2022-09-24T14:11:21.459Z,18.90
2022-09-24T14:13:48.070Z,18.90
2022-09-24T14:16:15.957Z,18.70
2022-09-24T14:18:42.777Z,18.40
2022-09-24T14:21:28.054Z,18.40
2022-09-24T14:24:09.037Z,18.40
2022-09-24T14:26:41.209Z,18.30
2022-09-24T14:29:14.818Z,18.20
2022-09-24T14:31:48.191Z,18.10
2022-09-24T14:34:29.842Z,18.10
2022-09-24T14:37:00.734Z,18.00
2022-09-24T14:39:29.503Z,18.00
2022-09-24T14:41:58.275Z,18.00
2022-09-24T14:44:28.058Z,17.90
2022-09-24T14:46:58.359Z,17.90
2022-09-24T14:49:30.023Z,17.80
2022-09-24T14:52:04.231Z,17.70
2022-09-24T14:54:42.286Z,17.70
2022-09-24T14:57:11.470Z,17.60
2022-09-24T14:59:39.348Z,17.50
2022-09-24T15:02:17.822Z,17.40
2022-09-24T15:04:48.481Z,17.40
2022-09-24T15:07:21.766Z,17.30
2022-09-24T15:09:51.471Z,17.30
2022-09-24T15:12:22.540Z,17.20
2022-09-24T15:14:57.684Z,17.20
2022-09-24T15:17:30.426Z,17.20
2022-09-24T15:19:58.121Z,17.10
2022-09-24T15:22:26.903Z,17.10
2022-09-24T15:25:01.482Z,17.00
2022-09-24T15:27:32.150Z,17.00
2022-09-24T15:30:01.198Z,17.00
2022-09-24T15:32:31.089Z,17.00
2022-09-24T15:34:57.858Z,16.90
2022-09-24T15:37:27.064Z,16.90
2022-09-24T15:39:58.125Z,16.90
2022-09-24T15:42:26.629Z,16.90
2022-09-24T15:44:56.087Z,16.80
2022-09-24T15:47:23.244Z,16.80
2022-09-24T15:49:50.140Z,16.80
2022-09-24T15:52:26.737Z,16.70
2022-09-24T15:54:58.160Z,16.60
2022-09-24T15:57:26.506Z,16.60
2022-09-24T15:59:53.478Z,16.50
2022-09-24T16:02:25.040Z,16.50
2022-09-24T16:04:52.248Z,16.40
2022-09-24T16:07:18.845Z,16.30
2022-09-24T16:09:45.612Z,16.30
2022-09-24T16:12:16.195Z,16.20
2022-09-24T16:14:43.142Z,16.20
2022-09-24T16:17:10.150Z,16.20
2022-09-24T16:19:36.892Z,16.20
2022-09-24T16:22:04.011Z,16.10
2022-09-24T16:24:34.739Z,16.10
2022-09-24T16:27:01.927Z,16.10
2022-09-24T16:29:28.546Z,16.00
2022-09-24T16:31:55.193Z,16.00
2022-09-24T16:34:21.801Z,16.00
2022-09-24T16:36:48.493Z,15.90
2022-09-24T16:39:18.064Z,15.90
2022-09-24T16:41:47.366Z,15.80
2022-09-24T16:44:15.066Z,15.70
2022-09-24T16:46:45.517Z,15.70
2022-09-24T16:49:12.638Z,15.60
2022-09-24T16:51:39.343Z,15.60
2022-09-24T16:54:06.117Z,15.50
2022-09-24T16:56:32.734Z,15.50
2022-09-24T16:58:59.292Z,15.50
2022-09-24T17:01:25.942Z,15.50
2022-09-24T17:03:56.871Z,15.40
2022-09-24T17:06:26.215Z,15.40
2022-09-24T17:09:12.098Z,15.40
2022-09-24T17:11:42.462Z,15.40
2022-09-24T17:14:12.411Z,15.40
2022-09-24T17:16:40.951Z,15.30
2022-09-24T17:19:09.366Z,15.20
2022-09-24T17:21:37.690Z,15.30
2022-09-24T17:24:04.908Z,15.20
2022-09-24T17:26:31.466Z,15.20
2022-09-24T17:28:58.460Z,15.20
2022-09-24T17:31:26.009Z,15.20
2022-09-24T17:34:04.920Z,15.20
2022-09-24T17:36:33.989Z,15.20
2022-09-24T17:39:01.083Z,15.10
2022-09-24T17:41:29.041Z,15.10
2022-09-24T17:43:58.767Z,15.10
2022-09-24T17:46:30.463Z,15.10
2022-09-24T17:48:59.433Z,15.10
2022-09-24T17:51:36.379Z,15.00
2022-09-24T17:54:05.689Z,15.00
2022-09-24T17:56:33.683Z,15.00
2022-09-24T17:59:00.554Z,15.00
2022-09-24T18:01:33.348Z,15.00
2022-09-24T18:04:00.309Z,15.00
2022-09-24T18:06:32.960Z,15.00
2022-09-24T18:09:00.989Z,15.00
2022-09-24T18:11:30.381Z,15.00
2022-09-24T18:13:59.108Z,14.90
2022-09-24T18:16:28.654Z,14.90
2022-09-24T18:18:55.933Z,15.00
2022-09-24T18:21:24.228Z,15.00
2022-09-24T18:23:55.234Z,15.00
2022-09-24T18:26:24.956Z,15.00
2022-09-24T18:28:54.711Z,15.00
2022-09-24T18:31:24.404Z,15.00
2022-09-24T18:33:52.812Z,14.90
2022-09-24T18:36:21.937Z,14.80
2022-09-24T18:38:49.059Z,14.80
2022-09-24T18:41:21.399Z,14.70
2022-09-24T18:43:48.302Z,14.60
2022-09-24T18:46:16.439Z,14.60
2022-09-24T18:48:44.870Z,14.60
2022-09-24T18:51:16.229Z,14.50
2022-09-24T18:53:42.838Z,14.50
2022-09-24T18:56:09.586Z,14.50
2022-09-24T18:58:36.145Z,14.50
2022-09-24T19:01:04.770Z,14.40
2022-09-24T19:03:32.166Z,14.40
2022-09-24T19:06:05.104Z,14.40
2022-09-24T19:08:32.179Z,14.40
2022-09-24T19:11:09.325Z,14.40
2022-09-24T19:13:38.010Z,14.40
2022-09-24T19:16:10.530Z,14.30
2022-09-24T19:18:37.933Z,14.30
2022-09-24T19:21:06.653Z,14.20
2022-09-24T19:23:45.622Z,14.20
2022-09-24T19:26:15.186Z,14.20
2022-09-24T19:28:42.817Z,14.10
2022-09-24T19:31:15.049Z,14.10
2022-09-24T19:33:41.964Z,14.20
2022-09-24T19:36:09.455Z,14.10
2022-09-24T19:38:37.039Z,14.10
2022-09-24T19:41:06.822Z,14.20
2022-09-24T19:43:34.519Z,14.10
2022-09-24T19:46:09.642Z,14.10
2022-09-24T19:48:38.397Z,14.10
2022-09-24T19:51:08.575Z,14.10
2022-09-24T19:53:36.225Z,14.00
2022-09-24T19:56:06.345Z,14.00
2022-09-24T19:58:33.373Z,14.00
2022-09-24T20:01:04.714Z,14.00
2022-09-24T20:03:32.778Z,14.00
2022-09-24T20:05:59.888Z,14.00
2022-09-24T20:08:26.485Z,14.00
2022-09-24T20:10:53.139Z,14.00
2022-09-24T20:13:20.792Z,14.00
2022-09-24T20:15:47.419Z,14.00
2022-09-24T20:18:15.199Z,14.00
2022-09-24T20:20:41.765Z,14.00
2022-09-24T20:23:10.061Z,14.00
2022-09-24T20:25:55.330Z,14.00
2022-09-24T20:28:22.489Z,13.90
